createdAt,value
2018-08-22T04:00:35.623Z,14.27
2018-08-22T04:01:35.561Z,14.17
2018-08-22T04:02:35.564Z,14.29
2018-08-22T04:03:35.536Z,14.24
2018-08-22T04:04:35.519Z,14.29
2018-08-22T04:05:35.527Z,14.23
2018-08-22T04:06:35.512Z,14.19
2018-08-22T04:07:35.494Z,14.26
2018-08-22T04:08:35.477Z,14.30
2018-08-22T04:09:35.472Z,14.27
2018-08-22T04:10:35.453Z,14.17
2018-08-22T04:11:35.455Z,14.17
2018-08-22T04:12:35.450Z,14.12
2018-08-22T04:13:35.419Z,14.21
2018-08-22T04:14:35.407Z,14.24
2018-08-22T04:15:35.396Z,14.16
2018-08-22T04:16:35.399Z,14.21
2018-08-22T04:17:35.372Z,14.21
2018-08-22T04:18:35.362Z,14.20
2018-08-22T04:19:35.351Z,14.20
2018-08-22T04:20:35.340Z,14.20
2018-08-22T04:21:35.341Z,14.17
2018-08-22T04:22:35.318Z,14.17
2018-08-22T04:23:35.302Z,14.23
2018-08-22T04:24:35.292Z,14.11
2018-08-22T04:25:35.286Z,14.17
2018-08-22T04:26:35.299Z,14.20
2018-08-22T04:27:35.261Z,14.12
2018-08-22T04:28:35.254Z,14.04
2018-08-22T04:29:35.251Z,14.08
2018-08-22T04:30:35.236Z,14.08
2018-08-22T04:31:35.252Z,14.04
2018-08-22T04:32:35.211Z,14.17
2018-08-22T04:33:35.207Z,14.13
2018-08-22T04:34:35.187Z,14.12
2018-08-22T04:35:35.180Z,14.08
2018-08-22T04:36:35.183Z,14.17
2018-08-22T04:37:35.152Z,14.16
2018-08-22T04:38:35.147Z,14.12
2018-08-22T04:39:35.131Z,14.12
2018-08-22T04:40:35.121Z,14.13
2018-08-22T04:41:35.129Z,14.06
2018-08-22T04:42:35.120Z,14.09
2018-08-22T04:43:35.085Z,14.17
2018-08-22T04:44:35.080Z,14.26
2018-08-22T04:45:35.073Z,14.26
2018-08-22T04:46:35.066Z,14.09
2018-08-22T04:47:35.049Z,14.09
2018-08-22T04:48:35.031Z,14.24
2018-08-22T04:49:35.029Z,14.16
2018-08-22T04:50:35.017Z,14.17
2018-08-22T04:51:35.021Z,14.23
2018-08-22T04:52:34.987Z,14.23
2018-08-22T04:53:34.977Z,14.20
2018-08-22T04:54:34.968Z,14.23
2018-08-22T04:55:34.958Z,14.11
2018-08-22T04:56:34.963Z,14.16
2018-08-22T04:57:34.920Z,14.16
2018-08-22T04:58:34.912Z,14.20
2018-08-22T04:59:34.906Z,14.12
2018-08-22T05:00:34.906Z,14.08
2018-08-22T05:01:34.896Z,14.06
2018-08-22T05:02:34.891Z,14.17
2018-08-22T05:03:34.855Z,14.11
2018-08-22T05:04:34.867Z,14.11
2018-08-22T05:05:34.848Z,14.16
2018-08-22T05:06:34.844Z,14.12
2018-08-22T05:07:34.819Z,14.17
2018-08-22T05:08:34.831Z,14.21
2018-08-22T05:09:34.804Z,14.27
2018-08-22T05:10:34.784Z,14.23
2018-08-22T05:11:34.794Z,14.21
2018-08-22T05:12:34.757Z,14.16
2018-08-22T05:13:34.749Z,14.26
2018-08-22T05:14:34.736Z,14.26
2018-08-22T05:15:34.729Z,14.27
2018-08-22T05:16:34.726Z,14.30
2018-08-22T05:17:34.700Z,14.34
2018-08-22T05:18:34.692Z,14.30
2018-08-22T05:19:34.677Z,14.38
2018-08-22T05:20:34.677Z,14.46
2018-08-22T05:21:34.690Z,14.41
2018-08-22T05:22:34.643Z,14.39
2018-08-22T05:23:34.633Z,14.42
2018-08-22T05:24:34.620Z,14.49
2018-08-22T05:25:34.608Z,14.45
2018-08-22T05:26:34.609Z,14.49
2018-08-22T05:27:34.585Z,14.42
2018-08-22T05:28:34.585Z,14.52
2018-08-22T05:29:34.564Z,14.54
2018-08-22T05:30:34.550Z,14.60
2018-08-22T05:31:34.557Z,14.52
2018-08-22T05:32:34.528Z,14.61
2018-08-22T05:33:34.513Z,14.53
2018-08-22T05:34:34.512Z,14.64
2018-08-22T05:35:34.509Z,14.64
2018-08-22T05:36:34.493Z,14.63
2018-08-22T05:37:34.482Z,14.57
2018-08-22T05:38:34.458Z,14.72
2018-08-22T05:39:34.455Z,14.72
2018-08-22T05:40:34.472Z,14.71
2018-08-22T05:41:34.436Z,14.69
2018-08-22T05:42:34.413Z,14.90
2018-08-22T05:43:34.401Z,14.78
2018-08-22T05:44:34.402Z,14.79
2018-08-22T05:45:34.378Z,14.87
2018-08-22T05:46:34.383Z,14.91
2018-08-22T05:47:34.356Z,14.94
2018-08-22T05:48:34.345Z,14.86
2018-08-22T05:49:34.339Z,15.00
2018-08-22T05:50:34.324Z,14.95
2018-08-22T05:51:34.325Z,14.97
2018-08-22T05:52:34.301Z,14.98
2018-08-22T05:53:34.291Z,15.05
2018-08-22T05:54:34.284Z,15.07
2018-08-22T05:55:34.269Z,15.03
2018-08-22T05:56:34.269Z,15.03
2018-08-22T05:57:34.292Z,15.04
2018-08-22T05:58:34.240Z,15.11
2018-08-22T05:59:34.221Z,15.12
2018-08-22T06:00:34.220Z,15.19
2018-08-22T06:01:34.215Z,15.15
2018-08-22T06:02:34.188Z,15.19
2018-08-22T06:03:34.177Z,15.23
2018-08-22T06:04:34.165Z,15.27
2018-08-22T06:05:34.154Z,15.37
2018-08-22T06:06:34.257Z,15.25
2018-08-22T06:07:34.132Z,15.34
2018-08-22T06:08:34.152Z,15.33
2018-08-22T06:09:34.112Z,15.46
2018-08-22T06:10:34.104Z,15.40
2018-08-22T06:11:34.085Z,15.43
2018-08-22T06:12:34.106Z,15.48
2018-08-22T06:13:34.064Z,15.46
2018-08-22T06:14:34.053Z,15.43
2018-08-22T06:15:34.047Z,15.53
2018-08-22T06:16:34.033Z,15.53
2018-08-22T06:17:34.033Z,15.53
2018-08-22T06:18:34.007Z,15.52
2018-08-22T06:19:34.003Z,15.55
2018-08-22T06:20:33.985Z,15.68
2018-08-22T06:21:33.973Z,15.71
2018-08-22T06:22:33.978Z,15.60
2018-08-22T06:23:33.953Z,15.67
2018-08-22T06:24:33.961Z,15.68
2018-08-22T06:25:34.011Z,15.70
2018-08-22T06:26:33.939Z,15.81
2018-08-22T06:27:33.922Z,15.76
2018-08-22T06:28:33.900Z,15.77
2018-08-22T06:29:33.885Z,15.80
2018-08-22T06:30:33.875Z,15.78
2018-08-22T06:31:33.866Z,15.91
2018-08-22T06:32:33.868Z,15.91
2018-08-22T06:33:33.839Z,16.03
2018-08-22T06:34:33.836Z,16.13
2018-08-22T06:35:33.818Z,16.17
2018-08-22T06:36:33.807Z,16.41
2018-08-22T06:37:33.812Z,16.72
2018-08-22T06:38:33.786Z,16.85
2018-08-22T06:39:33.773Z,16.92
2018-08-22T06:40:33.764Z,17.21
2018-08-22T06:41:33.755Z,17.33
2018-08-22T06:42:33.756Z,17.66
2018-08-22T06:43:33.729Z,17.81
2018-08-22T06:44:33.716Z,17.89
2018-08-22T06:45:33.705Z,18.01
2018-08-22T06:46:33.696Z,18.17
2018-08-22T06:47:33.701Z,18.29
2018-08-22T06:48:33.674Z,18.44
2018-08-22T06:49:33.674Z,18.59
2018-08-22T06:50:33.648Z,18.66
2018-08-22T06:51:33.642Z,18.87
2018-08-22T06:52:33.661Z,19.10
2018-08-22T06:53:33.619Z,19.25
2018-08-22T06:54:33.610Z,19.32
2018-08-22T06:55:33.594Z,19.25
2018-08-22T06:56:33.585Z,19.32
2018-08-22T06:57:33.587Z,19.23
2018-08-22T06:58:33.569Z,19.47
2018-08-22T06:59:33.549Z,19.53
2018-08-22T07:00:33.538Z,19.50
2018-08-22T07:01:33.526Z,19.40
2018-08-22T07:02:33.530Z,19.45
2018-08-22T07:03:33.503Z,19.71
2018-08-22T07:04:33.500Z,19.95
2018-08-22T07:05:33.483Z,19.87
2018-08-22T07:06:33.469Z,19.87
2018-08-22T07:07:33.471Z,19.79
2018-08-22T07:08:33.452Z,19.75
2018-08-22T07:09:33.437Z,19.72
2018-08-22T07:10:33.425Z,19.58
2018-08-22T07:11:33.417Z,19.50
2018-08-22T07:12:33.414Z,19.52
2018-08-22T07:13:33.390Z,19.40
2018-08-22T07:14:33.380Z,19.35
2018-08-22T07:15:33.371Z,19.27
2018-08-22T07:16:33.357Z,19.31
2018-08-22T07:17:33.361Z,19.31
2018-08-22T07:18:33.338Z,19.42
2018-08-22T07:19:33.324Z,19.55
2018-08-22T07:20:33.315Z,19.53
2018-08-22T07:21:33.304Z,19.55
2018-08-22T07:22:33.302Z,19.68
2018-08-22T07:23:33.287Z,19.79
2018-08-22T07:24:33.307Z,19.82
2018-08-22T07:25:33.420Z,20.00
2018-08-22T07:26:33.248Z,19.87
2018-08-22T07:27:33.254Z,19.78
2018-08-22T07:28:33.226Z,19.82
2018-08-22T07:29:33.215Z,20.02
2018-08-22T07:30:33.204Z,20.22
2018-08-22T07:31:33.195Z,20.19
2018-08-22T07:32:33.200Z,20.02
2018-08-22T07:33:33.176Z,20.00
2018-08-22T07:34:33.157Z,20.00
2018-08-22T07:35:33.147Z,20.10
2018-08-22T07:36:33.135Z,20.20
2018-08-22T07:37:33.138Z,20.22
2018-08-22T07:38:33.113Z,20.48
2018-08-22T07:39:33.101Z,20.61
2018-08-22T07:40:33.094Z,20.78
2018-08-22T07:41:33.077Z,20.78
2018-08-22T07:42:33.080Z,20.64
2018-08-22T07:43:33.058Z,21.06
2018-08-22T07:44:33.047Z,21.21
2018-08-22T07:45:33.034Z,21.56
2018-08-22T07:46:33.023Z,21.67
2018-08-22T07:47:33.023Z,21.99
2018-08-22T07:48:33.063Z,22.09
2018-08-22T07:49:33.016Z,22.21
2018-08-22T07:50:32.978Z,22.38
2018-08-22T07:51:32.967Z,22.56
2018-08-22T07:52:32.974Z,22.61
2018-08-22T07:53:32.945Z,22.69
2018-08-22T07:54:32.939Z,22.81
2018-08-22T07:55:32.921Z,22.82
2018-08-22T07:56:32.931Z,22.99
2018-08-22T07:57:32.912Z,23.26
2018-08-22T07:58:32.888Z,23.38
2018-08-22T07:59:32.882Z,23.44
2018-08-22T08:00:32.867Z,23.64
2018-08-22T08:01:32.856Z,23.77
2018-08-22T08:02:32.857Z,23.79
2018-08-22T08:03:32.834Z,23.81
2018-08-22T08:04:32.827Z,23.89
2018-08-22T08:05:32.841Z,23.92
2018-08-22T08:06:32.816Z,23.99
2018-08-22T08:07:32.801Z,24.12
2018-08-22T08:08:32.813Z,24.31
2018-08-22T08:09:32.768Z,24.37
2018-08-22T08:10:32.753Z,24.29
2018-08-22T08:11:32.745Z,24.23
2018-08-22T08:12:32.738Z,24.16
2018-08-22T08:13:32.735Z,24.27
2018-08-22T08:14:32.714Z,24.27
2018-08-22T08:15:32.702Z,24.30
2018-08-22T08:16:32.694Z,24.29
2018-08-22T08:17:32.678Z,24.51
2018-08-22T08:18:32.721Z,24.60
2018-08-22T08:19:32.656Z,24.75
2018-08-22T08:20:32.648Z,24.93
2018-08-22T08:21:32.637Z,25.02
2018-08-22T08:22:32.627Z,25.26
2018-08-22T08:23:32.627Z,25.36
2018-08-22T08:24:32.602Z,25.45
2018-08-22T08:25:32.605Z,25.63
2018-08-22T08:26:32.604Z,25.61
2018-08-22T08:27:32.566Z,25.74
2018-08-22T08:28:32.577Z,25.72
2018-08-22T08:29:32.559Z,25.89
2018-08-22T08:30:32.567Z,26.13
2018-08-22T08:31:32.532Z,26.17
2018-08-22T08:32:32.514Z,26.28
2018-08-22T08:33:32.533Z,26.46
2018-08-22T08:34:32.487Z,26.56
2018-08-22T08:35:32.488Z,26.66
2018-08-22T08:36:32.470Z,26.72
2018-08-22T08:37:32.457Z,26.97
2018-08-22T08:38:32.476Z,26.96
2018-08-22T08:39:32.433Z,27.11
2018-08-22T08:40:32.424Z,27.01
2018-08-22T08:41:32.500Z,27.03
2018-08-22T08:42:32.402Z,27.11
2018-08-22T08:43:32.405Z,27.24
2018-08-22T08:44:32.379Z,27.24
2018-08-22T08:45:32.367Z,27.30
2018-08-22T08:46:32.673Z,27.38
2018-08-22T08:47:32.347Z,27.40
2018-08-22T08:48:32.350Z,27.45
2018-08-22T08:49:32.331Z,27.66
2018-08-22T08:50:32.310Z,27.81
2018-08-22T08:51:32.412Z,27.77
2018-08-22T08:52:32.320Z,28.02
2018-08-22T08:53:32.289Z,28.20
2018-08-22T08:54:32.399Z,28.23
2018-08-22T08:55:32.254Z,28.38
2018-08-22T08:56:32.241Z,28.52
2018-08-22T08:57:32.240Z,28.77
2018-08-22T08:58:32.233Z,28.76
2018-08-22T08:59:32.210Z,29.03
2018-08-22T09:00:32.201Z,29.11
2018-08-22T09:01:32.236Z,29.07
2018-08-22T09:02:32.177Z,29.07
2018-08-22T09:03:32.197Z,28.98
2018-08-22T09:04:32.413Z,29.08
2018-08-22T09:05:32.146Z,29.08
2018-08-22T09:06:32.207Z,29.15
2018-08-22T09:07:32.130Z,29.33
2018-08-22T09:08:32.122Z,29.52
2018-08-22T09:09:32.104Z,29.82
2018-08-22T09:10:32.091Z,30.10
2018-08-22T09:11:32.079Z,30.37
2018-08-22T09:12:32.068Z,30.28
2018-08-22T09:13:32.066Z,30.23
2018-08-22T09:14:32.045Z,30.19
2018-08-22T09:15:32.083Z,30.13
2018-08-22T09:16:32.063Z,30.04
2018-08-22T09:17:32.011Z,30.10
2018-08-22T09:18:32.009Z,29.84
2018-08-22T09:19:31.993Z,30.10
2018-08-22T09:20:31.978Z,30.22
2018-08-22T09:21:32.030Z,30.45
2018-08-22T09:22:31.957Z,30.46
2018-08-22T09:23:31.954Z,30.42
2018-08-22T09:24:31.977Z,30.42
2018-08-22T09:25:31.924Z,30.45
2018-08-22T09:26:31.914Z,30.49
2018-08-22T09:27:31.899Z,30.44
2018-08-22T09:28:31.898Z,30.49
2018-08-22T09:29:31.919Z,30.54
2018-08-22T09:30:31.867Z,30.40
2018-08-22T09:31:31.875Z,30.29
2018-08-22T09:32:31.844Z,30.22
2018-08-22T09:33:31.860Z,30.06
2018-08-22T09:34:31.824Z,30.13
2018-08-22T09:35:31.850Z,30.06
2018-08-22T09:36:31.846Z,30.16
2018-08-22T09:37:31.790Z,30.06
2018-08-22T09:38:31.792Z,29.84
2018-08-22T09:39:31.863Z,29.74
2018-08-22T09:40:31.786Z,29.81
2018-08-22T09:41:31.747Z,29.76
2018-08-22T09:42:31.733Z,29.48
2018-08-22T09:43:31.735Z,29.45
2018-08-22T09:44:31.713Z,29.48
2018-08-22T09:45:31.701Z,29.57
2018-08-22T09:46:31.725Z,29.84
2018-08-22T09:47:31.708Z,29.79
2018-08-22T09:48:31.674Z,29.95
2018-08-22T09:49:31.657Z,29.95
2018-08-22T09:50:31.645Z,30.08
2018-08-22T09:51:31.634Z,30.04
2018-08-22T09:52:31.624Z,30.04
2018-08-22T09:53:31.622Z,29.81
2018-08-22T09:54:31.631Z,29.78
2018-08-22T09:55:31.591Z,29.47
2018-08-22T09:56:31.580Z,29.23
2018-08-22T09:57:31.694Z,29.05
2018-08-22T09:58:31.592Z,28.73
2018-08-22T09:59:31.545Z,28.54
2018-08-22T10:00:31.538Z,28.32
2018-08-22T10:01:31.541Z,28.17
2018-08-22T10:02:31.510Z,28.08
2018-08-22T10:03:31.512Z,27.96
2018-08-22T10:04:31.489Z,27.66
2018-08-22T10:05:31.477Z,27.35
2018-08-22T10:06:31.628Z,27.02
2018-08-22T10:07:31.585Z,27.05
2018-08-22T10:08:31.459Z,26.96
2018-08-22T10:09:31.444Z,26.91
2018-08-22T10:10:31.424Z,26.73
2018-08-22T10:11:31.411Z,26.61
2018-08-22T10:12:31.401Z,26.54
2018-08-22T10:13:31.390Z,26.39
2018-08-22T10:14:31.393Z,26.35
2018-08-22T10:15:31.368Z,26.32
2018-08-22T10:16:31.358Z,26.28
2018-08-22T10:17:31.345Z,26.27
2018-08-22T10:18:31.336Z,26.27
2018-08-22T10:19:31.359Z,26.24
2018-08-22T10:20:31.313Z,26.28
2018-08-22T10:21:31.306Z,26.21
2018-08-22T10:22:31.294Z,26.29
2018-08-22T10:23:31.287Z,26.28
2018-08-22T10:24:31.286Z,26.31
2018-08-22T10:25:31.259Z,26.31
2018-08-22T10:26:31.265Z,26.28
2018-08-22T10:27:31.240Z,26.39
2018-08-22T10:28:31.229Z,26.35
2018-08-22T10:29:31.231Z,26.46
2018-08-22T10:30:31.207Z,26.50
2018-08-22T10:31:31.198Z,26.42
2018-08-22T10:32:31.227Z,26.49
2018-08-22T10:33:31.169Z,26.46
2018-08-22T10:34:31.175Z,26.36
2018-08-22T10:35:31.148Z,26.49
2018-08-22T10:36:31.151Z,26.51
2018-08-22T10:37:31.128Z,26.46
2018-08-22T10:38:31.139Z,26.51
2018-08-22T10:39:31.217Z,26.51
2018-08-22T10:40:31.100Z,26.44
2018-08-22T10:41:31.081Z,26.50
2018-08-22T10:42:31.080Z,26.46
2018-08-22T10:43:31.062Z,26.46
2018-08-22T10:44:31.127Z,26.50
2018-08-22T10:45:31.038Z,26.46
2018-08-22T10:46:31.031Z,26.51
2018-08-22T10:47:31.016Z,26.46
2018-08-22T10:48:31.004Z,26.54
2018-08-22T10:49:31.004Z,26.53
2018-08-22T10:50:31.047Z,26.56
2018-08-22T10:51:30.975Z,26.53
2018-08-22T10:52:30.961Z,26.60
2018-08-22T10:53:30.950Z,26.66
2018-08-22T10:54:30.951Z,26.64
2018-08-22T10:55:30.927Z,26.59
2018-08-22T10:56:30.918Z,26.64
2018-08-22T10:57:30.907Z,26.68
2018-08-22T10:58:30.896Z,26.64
2018-08-22T10:59:30.898Z,26.76
2018-08-22T11:00:30.872Z,26.78
2018-08-22T11:01:30.863Z,26.76
2018-08-22T11:02:30.858Z,26.83
2018-08-22T11:03:30.842Z,26.79
2018-08-22T11:04:30.840Z,26.81
2018-08-22T11:05:30.817Z,26.83
2018-08-22T11:06:30.808Z,26.69
2018-08-22T11:07:30.796Z,26.65
2018-08-22T11:08:30.787Z,26.69
2018-08-22T11:09:30.783Z,26.69
2018-08-22T11:10:30.761Z,26.66
2018-08-22T11:11:30.752Z,26.64
2018-08-22T11:12:30.740Z,26.69
2018-08-22T11:13:30.729Z,26.73
2018-08-22T11:14:30.729Z,26.75
2018-08-22T11:15:30.709Z,26.84
2018-08-22T11:16:30.704Z,26.78
2018-08-22T11:17:30.687Z,26.83
2018-08-22T11:18:30.674Z,26.86
2018-08-22T11:19:30.678Z,26.87
2018-08-22T11:20:30.656Z,26.88
2018-08-22T11:21:30.648Z,26.94
2018-08-22T11:22:30.723Z,26.88
2018-08-22T11:23:30.621Z,26.81
2018-08-22T11:24:30.625Z,26.83
2018-08-22T11:25:30.596Z,26.86
2018-08-22T11:26:30.584Z,26.87
2018-08-22T11:27:30.576Z,26.79
2018-08-22T11:28:30.568Z,26.79
2018-08-22T11:29:30.611Z,26.84
2018-08-22T11:30:30.543Z,26.79
2018-08-22T11:31:30.544Z,26.78
2018-08-22T11:32:30.520Z,26.76
2018-08-22T11:33:30.513Z,26.86
2018-08-22T11:34:30.564Z,26.94
2018-08-22T11:35:30.489Z,26.96
2018-08-22T11:36:30.500Z,27.08
2018-08-22T11:37:30.465Z,27.01
2018-08-22T11:38:30.455Z,27.12
2018-08-22T11:39:30.453Z,27.13
2018-08-22T11:40:30.433Z,27.16
2018-08-22T11:41:30.420Z,27.16
2018-08-22T11:42:30.415Z,27.09
2018-08-22T11:43:30.400Z,27.11
2018-08-22T11:44:30.404Z,27.13
2018-08-22T11:45:30.380Z,27.09
2018-08-22T11:46:30.367Z,27.08
2018-08-22T11:47:30.356Z,27.03
2018-08-22T11:48:30.346Z,27.13
2018-08-22T11:49:30.347Z,27.05
2018-08-22T11:50:30.328Z,27.01
2018-08-22T11:51:30.312Z,27.06
2018-08-22T11:52:30.303Z,27.08
2018-08-22T11:53:30.289Z,27.12
2018-08-22T11:54:30.290Z,27.02
2018-08-22T11:55:30.271Z,27.02
2018-08-22T11:56:30.257Z,27.08
2018-08-22T11:57:30.246Z,27.16
2018-08-22T11:58:30.235Z,27.02
2018-08-22T11:59:30.238Z,27.05
2018-08-22T12:00:30.214Z,27.05
2018-08-22T12:01:30.206Z,27.02
2018-08-22T12:02:30.197Z,27.16
2018-08-22T12:03:30.185Z,27.13
2018-08-22T12:04:30.187Z,27.24
2018-08-22T12:05:30.157Z,27.15
2018-08-22T12:06:30.150Z,27.23
2018-08-22T12:07:30.139Z,27.28
2018-08-22T12:08:30.125Z,27.15
2018-08-22T12:09:30.130Z,27.21
2018-08-22T12:10:30.110Z,27.18
2018-08-22T12:11:30.093Z,27.08
2018-08-22T12:12:30.083Z,27.18
2018-08-22T12:13:30.071Z,27.05
2018-08-22T12:14:30.084Z,27.12
2018-08-22T12:15:30.051Z,26.98
2018-08-22T12:16:30.039Z,26.98
2018-08-22T12:17:30.033Z,27.13
2018-08-22T12:18:30.015Z,27.11
2018-08-22T12:19:30.010Z,27.16
2018-08-22T12:20:30.008Z,27.09
2018-08-22T12:21:29.986Z,27.03
2018-08-22T12:22:29.971Z,27.03
2018-08-22T12:23:30.055Z,27.11
2018-08-22T12:24:29.950Z,27.08
2018-08-22T12:25:29.954Z,27.06
2018-08-22T12:26:29.928Z,27.09
2018-08-22T12:27:29.918Z,27.21
2018-08-22T12:28:29.910Z,27.20
2018-08-22T12:29:29.900Z,27.15
2018-08-22T12:30:29.895Z,27.05
2018-08-22T12:31:29.873Z,27.13
2018-08-22T12:32:29.865Z,27.12
2018-08-22T12:33:29.852Z,27.05
2018-08-22T12:34:29.840Z,27.05
2018-08-22T12:35:29.845Z,27.11
2018-08-22T12:36:29.823Z,27.06
2018-08-22T12:37:29.809Z,27.03
2018-08-22T12:38:29.796Z,27.01
2018-08-22T12:39:29.790Z,27.01
2018-08-22T12:40:29.786Z,27.06
2018-08-22T12:41:29.768Z,27.03
2018-08-22T12:42:29.754Z,27.09
2018-08-22T12:43:29.742Z,27.12
2018-08-22T12:44:29.734Z,27.15
2018-08-22T12:45:29.734Z,27.09
2018-08-22T12:46:29.708Z,27.06
2018-08-22T12:47:29.702Z,26.90
2018-08-22T12:48:29.689Z,26.91
2018-08-22T12:49:29.680Z,26.91
2018-08-22T12:50:29.741Z,26.86
2018-08-22T12:51:29.652Z,26.86
2018-08-22T12:52:29.641Z,26.78
2018-08-22T12:53:29.661Z,26.88
2018-08-22T12:54:29.622Z,26.79
2018-08-22T12:55:29.621Z,26.86
2018-08-22T12:56:29.600Z,26.86
2018-08-22T12:57:29.592Z,26.88
2018-08-22T12:58:29.577Z,26.87
2018-08-22T12:59:29.571Z,26.91
2018-08-22T13:00:29.570Z,26.91
2018-08-22T13:01:29.551Z,26.98
2018-08-22T13:02:29.535Z,26.86
2018-08-22T13:03:29.525Z,26.81
2018-08-22T13:04:29.559Z,26.78
2018-08-22T13:05:29.517Z,26.75
2018-08-22T13:06:29.489Z,26.71
2018-08-22T13:07:29.479Z,26.87
2018-08-22T13:08:29.467Z,26.79
2018-08-22T13:09:29.455Z,26.73
2018-08-22T13:10:29.457Z,26.81
2018-08-22T13:11:29.471Z,26.83
2018-08-22T13:12:29.424Z,26.79
2018-08-22T13:13:29.413Z,26.78
2018-08-22T13:14:29.401Z,26.78
2018-08-22T13:15:29.407Z,26.79
2018-08-22T13:16:29.382Z,26.75
2018-08-22T13:17:29.371Z,26.78
2018-08-22T13:18:29.359Z,26.78
2018-08-22T13:19:29.352Z,26.79
2018-08-22T13:20:29.351Z,26.81
2018-08-22T13:21:29.323Z,26.79
2018-08-22T13:22:29.313Z,26.84
2018-08-22T13:23:29.306Z,26.86
2018-08-22T13:24:29.292Z,26.90
2018-08-22T13:25:29.321Z,26.86
2018-08-22T13:26:29.272Z,26.73
2018-08-22T13:27:29.260Z,26.86
2018-08-22T13:28:29.253Z,26.83
2018-08-22T13:29:29.236Z,26.86
2018-08-22T13:30:29.309Z,26.86
2018-08-22T13:31:29.228Z,26.88
2018-08-22T13:32:29.209Z,26.94
2018-08-22T13:33:29.203Z,26.98
2018-08-22T13:34:29.182Z,26.91
2018-08-22T13:35:29.175Z,27.03
2018-08-22T13:36:29.199Z,27.08
2018-08-22T13:37:29.151Z,27.06
2018-08-22T13:38:29.137Z,27.15
2018-08-22T13:39:29.127Z,27.09
2018-08-22T13:40:29.127Z,27.05
2018-08-22T13:41:29.127Z,27.09
2018-08-22T13:42:29.093Z,27.05
2018-08-22T13:43:29.092Z,27.06
2018-08-22T13:44:29.078Z,27.06
2018-08-22T13:45:29.063Z,27.06
2018-08-22T13:46:29.060Z,27.16
2018-08-22T13:47:29.038Z,27.06
2018-08-22T13:48:29.037Z,27.05
2018-08-22T13:49:29.017Z,27.18
2018-08-22T13:50:29.011Z,27.18
2018-08-22T13:51:29.007Z,27.09
2018-08-22T13:52:28.992Z,27.11
2018-08-22T13:53:28.975Z,27.18
2018-08-22T13:54:28.969Z,27.09
2018-08-22T13:55:28.952Z,27.01
2018-08-22T13:56:29.023Z,27.03
2018-08-22T13:57:28.931Z,27.02
2018-08-22T13:58:28.918Z,27.06
2018-08-22T13:59:28.906Z,27.20
2018-08-22T14:00:28.896Z,27.16
2018-08-22T14:01:29.041Z,27.05
2018-08-22T14:02:28.877Z,27.11
2018-08-22T14:03:28.863Z,27.05
2018-08-22T14:04:28.853Z,27.06
2018-08-22T14:05:28.842Z,27.09
2018-08-22T14:06:28.853Z,26.94
2018-08-22T14:07:28.820Z,26.96
2018-08-22T14:08:28.812Z,26.79
2018-08-22T14:09:28.803Z,26.78
2018-08-22T14:10:28.789Z,26.69
2018-08-22T14:11:28.791Z,26.66
2018-08-22T14:12:28.765Z,26.60
2018-08-22T14:13:28.754Z,26.65
2018-08-22T14:14:28.744Z,26.68
2018-08-22T14:15:28.733Z,26.60
2018-08-22T14:16:28.743Z,26.41
2018-08-22T14:17:28.709Z,25.98
2018-08-22T14:18:28.702Z,25.71
2018-08-22T14:19:28.688Z,25.41
2018-08-22T14:20:28.682Z,25.16
2018-08-22T14:21:28.678Z,24.87
2018-08-22T14:22:28.746Z,24.63
2018-08-22T14:23:28.644Z,24.51
2018-08-22T14:24:28.634Z,24.30
2018-08-22T14:25:28.624Z,24.15
2018-08-22T14:26:28.610Z,24.14
2018-08-22T14:27:28.619Z,24.05
2018-08-22T14:28:28.593Z,23.84
2018-08-22T14:29:28.580Z,23.71
2018-08-22T14:30:28.576Z,23.39
2018-08-22T14:31:28.573Z,23.16
2018-08-22T14:32:28.558Z,23.16
2018-08-22T14:33:28.548Z,23.25
2018-08-22T14:34:28.524Z,23.23
2018-08-22T14:35:28.514Z,23.34
2018-08-22T14:36:28.505Z,23.54
2018-08-22T14:37:28.503Z,23.68
2018-08-22T14:38:28.489Z,23.59
2018-08-22T14:39:28.572Z,23.74
2018-08-22T14:40:28.457Z,23.78
2018-08-22T14:41:28.450Z,23.92
2018-08-22T14:42:28.452Z,23.94
2018-08-22T14:43:28.425Z,23.90
2018-08-22T14:44:28.418Z,23.87
2018-08-22T14:45:28.402Z,23.94
2018-08-22T14:46:28.393Z,23.93
2018-08-22T14:47:28.401Z,23.93
2018-08-22T14:48:28.372Z,24.04
2018-08-22T14:49:28.360Z,23.99
2018-08-22T14:50:28.351Z,24.05
2018-08-22T14:51:28.340Z,24.06
2018-08-22T14:52:28.341Z,24.12
2018-08-22T14:53:28.324Z,24.18
2018-08-22T14:54:28.308Z,24.16
2018-08-22T14:55:28.305Z,24.14
2018-08-22T14:56:28.451Z,24.15
2018-08-22T14:57:28.284Z,24.24
2018-08-22T14:58:28.262Z,24.30
2018-08-22T14:59:28.252Z,24.39
2018-08-22T15:00:28.243Z,24.61
2018-08-22T15:01:28.228Z,24.84
2018-08-22T15:02:28.326Z,24.94
2018-08-22T15:03:28.387Z,25.04
2018-08-22T15:04:28.194Z,25.01
2018-08-22T15:05:28.205Z,25.05
2018-08-22T15:06:28.177Z,24.98
2018-08-22T15:07:28.180Z,24.99
2018-08-22T15:08:28.154Z,24.99
2018-08-22T15:09:28.138Z,25.02
2018-08-22T15:10:28.145Z,25.04
2018-08-22T15:11:28.117Z,25.04
2018-08-22T15:12:28.120Z,25.09
2018-08-22T15:13:28.100Z,25.08
2018-08-22T15:14:28.088Z,25.07
2018-08-22T15:15:28.074Z,25.17
2018-08-22T15:16:28.064Z,25.26
2018-08-22T15:17:28.068Z,25.20
2018-08-22T15:18:28.043Z,25.26
2018-08-22T15:19:28.028Z,25.16
2018-08-22T15:20:28.025Z,25.12
2018-08-22T15:21:28.010Z,25.24
2018-08-22T15:22:28.014Z,25.22
2018-08-22T15:23:27.986Z,25.16
2018-08-22T15:24:27.975Z,25.20
2018-08-22T15:25:27.962Z,25.12
2018-08-22T15:26:27.990Z,25.12
2018-08-22T15:27:27.984Z,25.12
2018-08-22T15:28:27.930Z,25.12
2018-08-22T15:29:27.919Z,25.20
2018-08-22T15:30:27.908Z,25.20
2018-08-22T15:31:27.897Z,25.19
2018-08-22T15:32:27.900Z,25.30
2018-08-22T15:33:27.880Z,25.27
2018-08-22T15:34:27.867Z,25.36
2018-08-22T15:35:27.856Z,25.42
2018-08-22T15:36:27.868Z,25.39
2018-08-22T15:37:27.847Z,25.48
2018-08-22T15:38:27.820Z,25.56
2018-08-22T15:39:27.817Z,25.57
2018-08-22T15:40:27.803Z,25.59
2018-08-22T15:41:27.789Z,25.67
2018-08-22T15:42:27.793Z,25.76
2018-08-22T15:43:27.765Z,25.74
2018-08-22T15:44:27.757Z,25.57
2018-08-22T15:45:27.746Z,25.71
2018-08-22T15:46:27.738Z,25.63
2018-08-22T15:47:27.834Z,25.63
2018-08-22T15:48:27.714Z,25.66
2018-08-22T15:49:27.720Z,25.63
2018-08-22T15:50:27.693Z,25.53
2018-08-22T15:51:27.688Z,25.54
2018-08-22T15:52:27.678Z,25.49
2018-08-22T15:53:27.656Z,25.39
2018-08-22T15:54:27.648Z,25.27
2018-08-22T15:55:27.634Z,25.31
2018-08-22T15:56:27.629Z,25.27
2018-08-22T15:57:27.624Z,25.19
2018-08-22T15:58:27.602Z,25.23
2018-08-22T15:59:27.593Z,25.14
2018-08-22T16:00:27.581Z,25.05
2018-08-22T16:01:27.570Z,24.99
2018-08-22T16:02:27.568Z,25.01
2018-08-22T16:03:27.548Z,24.90
2018-08-22T16:04:27.537Z,24.82
2018-08-22T16:05:27.533Z,24.77
2018-08-22T16:06:27.513Z,24.71
2018-08-22T16:07:27.515Z,24.61
2018-08-22T16:08:27.494Z,24.66
2018-08-22T16:09:27.483Z,24.55
2018-08-22T16:10:27.469Z,24.63
2018-08-22T16:11:27.461Z,24.59
2018-08-22T16:12:27.459Z,24.56
2018-08-22T16:13:27.436Z,24.63
2018-08-22T16:14:27.454Z,24.52
2018-08-22T16:15:27.417Z,24.46
2018-08-22T16:16:27.408Z,24.45
2018-08-22T16:17:27.408Z,24.49
2018-08-22T16:18:27.389Z,24.42
2018-08-22T16:19:27.375Z,24.37
2018-08-22T16:20:27.362Z,24.39
2018-08-22T16:21:27.349Z,24.30
2018-08-22T16:22:27.360Z,24.30
2018-08-22T16:23:27.328Z,24.29
2018-08-22T16:24:27.317Z,24.15
2018-08-22T16:25:27.305Z,24.14
2018-08-22T16:26:27.294Z,24.14
2018-08-22T16:27:27.307Z,24.16
2018-08-22T16:28:27.355Z,24.16
2018-08-22T16:29:27.262Z,24.11
2018-08-22T16:30:27.255Z,24.14
2018-08-22T16:31:27.242Z,24.11
2018-08-22T16:32:27.229Z,24.02
2018-08-22T16:33:27.228Z,23.97
2018-08-22T16:34:27.207Z,24.02
2018-08-22T16:35:27.195Z,24.00
2018-08-22T16:36:27.186Z,23.94
2018-08-22T16:37:27.178Z,23.94
2018-08-22T16:38:27.176Z,23.86
2018-08-22T16:39:27.160Z,23.89
2018-08-22T16:40:27.142Z,23.86
2018-08-22T16:41:27.131Z,23.79
2018-08-22T16:42:27.205Z,23.77
2018-08-22T16:43:27.120Z,23.77
2018-08-22T16:44:27.100Z,23.72
2018-08-22T16:45:27.090Z,23.71
2018-08-22T16:46:27.077Z,23.74
2018-08-22T16:47:27.065Z,23.74
2018-08-22T16:48:27.068Z,23.63
2018-08-22T16:49:27.090Z,23.67
2018-08-22T16:50:27.031Z,23.57
2018-08-22T16:51:27.042Z,23.56
2018-08-22T16:52:27.009Z,23.68